Little Lake, CA

9:49 PM PDT on June 01, 2015 (GMT -0700)
RAWS | | Change Station
CLOSE
Current Station
Personal Weather Station
Location: Little Lake, CA
Elevation: 4149 ft
Nearby Weather Stations

Elev 4149 ft 35.87 °N, 117.92 °W | Updated 1 hour ago

Partly Cloudy
Partly Cloudy
75 °F
Feels Like 75 °F
N
29
Wind Variable Wind from NW
Gusts 53.0 mph

Today
High -- | Low -- °F
--% Chance of Precip.
Yesterday
High -- | Low -- °F
Precip. -- in
5:36 AM 8:02 PM
Full, 100% visible
Pressure 29.77 in
Visibility 10.0 miles
Clouds Scattered Clouds 28000 ft
Heat Index 75 °F
Dew Point 15 °F
Humidity 10%
Rainfall in
Snow Depth Not available.
UV 0 out of 12
Pollen 5.50 out of 12
Air Quality Not available.
Flu Activity Sporadic
METAR KNID 020356Z 20014KT 10SM SCT280 24/M02 A2982 RMK AO2 PK WND 22028/0309 SLP079 T02441022 $

More Conditions Fewer Conditions

Pressure 29.77 in
Visibility 10.0 miles
Clouds Scattered Clouds 28000 ft
Heat Index 75 °F
Dew Point 15 °F
Humidity 10%
Rainfall in
Snow Depth Not available.
UV 0 out of 12
Pollen 5.50 out of 12
Air Quality Not available.
Flu Activity Sporadic
METAR KNID 020356Z 20014KT 10SM SCT280 24/M02 A2982 RMK AO2 PK WND 22028/0309 SLP079 T02441022 $

More Conditions Fewer Conditions

10-Day Weather Forecast

Almanac

Astronomy

Jun. 01, 2015 Rise Set
Actual Time
Civil Twilight
Nautical Twilight
Astronomical Twilight
Moon
Length of Visible Light
Length of Day
Tomorrow will be .
, % of the Moon is Illuminated

Today's Extremes

State Highs State Lows

Community

WunderPhotos

Upload Photos

1,825,913 photos uploaded!

WunderBlogs® & News

Nearby

Air Quality

  Air Quality AQ Index Pollutant
Not available.

Snow Depth

Station Depth Elevation

Earthquake Activity

City Distance Mag. Time & Date
Minimum magnitude displayed is 2.5.

Coastal Water Temperatures

Place Temperature

Stations

Nearby Weather Stations

Station Location Temp. Windchill Dew Point Humidity Wind Precip. Elev Updated Type